sensor_id;sensor_type;location;lat;lon;timestamp;pressure;altitude;pressure_sealevel;temperature;humidity
20115;BME280;10218;42.874;25.320;2023-05-25T00:00:26;97078.84;;;15.01;100.00
20115;BME280;10218;42.874;25.320;2023-05-25T00:02:53;97093.97;;;15.09;100.00
20115;BME280;10218;42.874;25.320;2023-05-25T00:05:21;97090.47;;;15.15;100.00
20115;BME280;10218;42.874;25.320;2023-05-25T00:07:54;97090.47;;;15.15;100.00
20115;BME280;10218;42.874;25.320;2023-05-25T00:10:21;97093.50;;;14.98;100.00
20115;BME280;10218;42.874;25.320;2023-05-25T00:12:49;97101.22;;;15.15;100.00
20115;BME280;10218;42.874;25.320;2023-05-25T00:15:16;97096.22;;;14.98;100.00
20115;BME280;10218;42.874;25.320;2023-05-25T00:17:44;97091.47;;;15.01;100.00
20115;BME280;10218;42.874;25.320;2023-05-25T00:20:14;97094.53;;;14.91;100.00
20115;BME280;10218;42.874;25.320;2023-05-25T00:22:42;97099.56;;;15.14;100.00
20115;BME280;10218;42.874;25.320;2023-05-25T00:25:11;97089.41;;;15.03;100.00
20115;BME280;10218;42.874;25.320;2023-05-25T00:27:38;97091.81;;;14.84;100.00
20115;BME280;10218;42.874;25.320;2023-05-25T00:30:05;97093.06;;;14.82;100.00
20115;BME280;10218;42.874;25.320;2023-05-25T00:32:35;97099.19;;;14.69;100.00
20115;BME280;10218;42.874;25.320;2023-05-25T00:35:02;97100.84;;;14.70;100.00
20115;BME280;10218;42.874;25.320;2023-05-25T00:37:29;97103.69;;;14.55;100.00
20115;BME280;10218;42.874;25.320;2023-05-25T00:39:56;97101.50;;;14.72;100.00
20115;BME280;10218;42.874;25.320;2023-05-25T00:42:23;97104.56;;;14.69;100.00
20115;BME280;10218;42.874;25.320;2023-05-25T00:44:51;97100.38;;;14.60;100.00
20115;BME280;10218;42.874;25.320;2023-05-25T00:47:19;97091.19;;;14.41;100.00
20115;BME280;10218;42.874;25.320;2023-05-25T00:49:46;97110.03;;;14.48;100.00
20115;BME280;10218;42.874;25.320;2023-05-25T00:52:13;97107.34;;;14.48;100.00
20115;BME280;10218;42.874;25.320;2023-05-25T00:54:46;97112.63;;;14.63;100.00
20115;BME280;10218;42.874;25.320;2023-05-25T00:57:19;97085.75;;;14.35;100.00
20115;BME280;10218;42.874;25.320;2023-05-25T00:59:50;97112.63;;;14.35;100.00
20115;BME280;10218;42.874;25.320;2023-05-25T01:02:20;97103.16;;;14.39;100.00
20115;BME280;10218;42.874;25.320;2023-05-25T01:04:55;97093.66;;;14.43;100.00
20115;BME280;10218;42.874;25.320;2023-05-25T01:07:26;97099.69;;;14.45;100.00
20115;BME280;10218;42.874;25.320;2023-05-25T01:10:00;97096.75;;;14.40;100.00
20115;BME280;10218;42.874;25.320;2023-05-25T01:12:28;97110.72;;;14.57;100.00
20115;BME280;10218;42.874;25.320;2023-05-25T01:14:57;97110.72;;;14.57;100.00
20115;BME280;10218;42.874;25.320;2023-05-25T01:17:25;97097.50;;;14.62;100.00
20115;BME280;10218;42.874;25.320;2023-05-25T01:19:54;97108.88;;;14.64;100.00
20115;BME280;10218;42.874;25.320;2023-05-25T01:22:41;97102.44;;;14.58;100.00
20115;BME280;10218;42.874;25.320;2023-05-25T01:25:19;97098.81;;;14.72;100.00
20115;BME280;10218;42.874;25.320;2023-05-25T01:30:29;97099.19;;;14.69;100.00
20115;BME280;10218;42.874;25.320;2023-05-25T01:32:59;97093.12;;;14.54;100.00
20115;BME280;10218;42.874;25.320;2023-05-25T01:35:27;97093.81;;;14.69;100.00
20115;BME280;10218;42.874;25.320;2023-05-25T01:37:57;97092.31;;;14.60;100.00
20115;BME280;10218;42.874;25.320;2023-05-25T01:40:26;97093.19;;;14.67;100.00
20115;BME280;10218;42.874;25.320;2023-05-25T01:42:53;97096.56;;;14.82;100.00
20115;BME280;10218;42.874;25.320;2023-05-25T01:45:20;97096.81;;;14.53;100.00
20115;BME280;10218;42.874;25.320;2023-05-25T01:50:22;97091.63;;;14.45;100.00
20115;BME280;10218;42.874;25.320;2023-05-25T01:53:02;97094.00;;;14.33;100.00
20115;BME280;10218;42.874;25.320;2023-05-25T01:55:38;97099.75;;;14.58;100.00
20115;BME280;10218;42.874;25.320;2023-05-25T01:58:09;97094.47;;;14.37;100.00
20115;BME280;10218;42.874;25.320;2023-05-25T02:00:39;97098.81;;;14.38;100.00
20115;BME280;10218;42.874;25.320;2023-05-25T02:03:07;97106.06;;;14.44;100.00
20115;BME280;10218;42.874;25.320;2023-05-25T02:05:36;97105.06;;;14.45;100.00
20115;BME280;10218;42.874;25.320;2023-05-25T02:08:05;97104.37;;;14.71;100.00
20115;BME280;10218;42.874;25.320;2023-05-25T02:10:32;97110.66;;;14.50;100.00
20115;BME280;10218;42.874;25.320;2023-05-25T02:12:59;97114.16;;;14.44;100.00
20115;BME280;10218;42.874;25.320;2023-05-25T02:15:31;97107.84;;;14.30;100.00
20115;BME280;10218;42.874;25.320;2023-05-25T02:17:59;97114.28;;;14.36;100.00
20115;BME280;10218;42.874;25.320;2023-05-25T02:20:27;97112.47;;;14.15;100.00
20115;BME280;10218;42.874;25.320;2023-05-25T02:22:54;97113.31;;;14.16;100.00
20115;BME280;10218;42.874;25.320;2023-05-25T02:25:21;97121.75;;;14.12;100.00
20115;BME280;10218;42.874;25.320;2023-05-25T02:27:49;97122.69;;;14.26;100.00
20115;BME280;10218;42.874;25.320;2023-05-25T02:30:16;97119.47;;;14.09;100.00
20115;BME280;10218;42.874;25.320;2023-05-25T02:32:43;97122.47;;;14.28;100.00
20115;BME280;10218;42.874;25.320;2023-05-25T02:35:11;97119.66;;;14.36;100.00
20115;BME280;10218;42.874;25.320;2023-05-25T02:37:38;97127.63;;;14.50;100.00
20115;BME280;10218;42.874;25.320;2023-05-25T02:40:06;97127.72;;;14.36;100.00
20115;BME280;10218;42.874;25.320;2023-05-25T02:42:34;97137.97;;;14.26;100.00
20115;BME280;10218;42.874;25.320;2023-05-25T02:45:00;97127.28;;;14.32;100.00
20115;BME280;10218;42.874;25.320;2023-05-25T02:47:28;97137.28;;;14.17;100.00
20115;BME280;10218;42.874;25.320;2023-05-25T02:49:55;97132.94;;;14.37;100.00
20115;BME280;10218;42.874;25.320;2023-05-25T02:52:22;97139.75;;;14.40;100.00
20115;BME280;10218;42.874;25.320;2023-05-25T02:54:51;97143.28;;;14.19;100.00
20115;BME280;10218;42.874;25.320;2023-05-25T02:57:19;97145.97;;;14.19;100.00
20115;BME280;10218;42.874;25.320;2023-05-25T02:59:46;97140.84;;;14.24;100.00
20115;BME280;10218;42.874;25.320;2023-05-25T03:02:13;97146.56;;;14.14;100.00
20115;BME280;10218;42.874;25.320;2023-05-25T03:04:40;97151.66;;;14.31;100.00
20115;BME280;10218;42.874;25.320;2023-05-25T03:07:08;97146.03;;;14.26;100.00
20115;BME280;10218;42.874;25.320;2023-05-25T03:09:36;97148.84;;;14.18;100.00
20115;BME280;10218;42.874;25.320;2023-05-25T03:12:04;97152.19;;;14.20;100.00
20115;BME280;10218;42.874;25.320;2023-05-25T03:14:31;97153.28;;;14.25;100.00
20115;BME280;10218;42.874;25.320;2023-05-25T03:16:58;97164.44;;;14.29;100.00
20115;BME280;10218;42.874;25.320;2023-05-25T03:19:25;97165.97;;;14.10;100.00
20115;BME280;10218;42.874;25.320;2023-05-25T03:21:52;97152.59;;;14.17;100.00
20115;BME280;10218;42.874;25.320;2023-05-25T03:24:19;97155.31;;;14.23;100.00
20115;BME280;10218;42.874;25.320;2023-05-25T03:26:47;97164.13;;;14.17;100.00
20115;BME280;10218;42.874;25.320;2023-05-25T03:29:14;97170.03;;;14.27;100.00
20115;BME280;10218;42.874;25.320;2023-05-25T03:31:41;97166.13;;;14.30;100.00
20115;BME280;10218;42.874;25.320;2023-05-25T03:34:09;97171.25;;;14.25;100.00
20115;BME280;10218;42.874;25.320;2023-05-25T03:36:36;97164.13;;;14.10;100.00
20115;BME280;10218;42.874;25.320;2023-05-25T03:39:05;97172.44;;;14.22;100.00
20115;BME280;10218;42.874;25.320;2023-05-25T03:41:33;97167.59;;;14.32;100.00
20115;BME280;10218;42.874;25.320;2023-05-25T03:44:00;97167.31;;;14.48;100.00
20115;BME280;10218;42.874;25.320;2023-05-25T03:46:27;97171.06;;;14.54;100.00
20115;BME280;10218;42.874;25.320;2023-05-25T03:48:55;97166.75;;;14.32;100.00
20115;BME280;10218;42.874;25.320;2023-05-25T03:51:22;97158.75;;;14.66;100.00
20115;BME280;10218;42.874;25.320;2023-05-25T03:53:49;97158.37;;;14.76;100.00
20115;BME280;10218;42.874;25.320;2023-05-25T03:56:16;97163.34;;;14.72;100.00
20115;BME280;10218;42.874;25.320;2023-05-25T03:58:43;97173.34;;;14.50;100.00
20115;BME280;10218;42.874;25.320;2023-05-25T04:01:10;97174.84;;;14.60;100.00
20115;BME280;10218;42.874;25.320;2023-05-25T04:03:39;97172.09;;;14.53;100.00
20115;BME280;10218;42.874;25.320;2023-05-25T04:06:06;97175.13;;;14.71;100.00
20115;BME280;10218;42.874;25.320;2023-05-25T04:08:34;97174.69;;;15.09;100.00
20115;BME280;10218;42.874;25.320;2023-05-25T04:11:03;97170.44;;;15.34;100.00
20115;BME280;10218;42.874;25.320;2023-05-25T04:13:30;97171.50;;;15.33;100.00
20115;BME280;10218;42.874;25.320;2023-05-25T04:16:02;97171.09;;;15.49;100.00
20115;BME280;10218;42.874;25.320;2023-05-25T04:18:29;97167.44;;;15.57;100.00
20115;BME280;10218;42.874;25.320;2023-05-25T04:20:58;97162.31;;;15.68;100.00
20115;BME280;10218;42.874;25.320;2023-05-25T04:23:25;97168.31;;;15.70;100.00
20115;BME280;10218;42.874;25.320;2023-05-25T04:25:53;97172.91;;;15.90;100.00
20115;BME280;10218;42.874;25.320;2023-05-25T04:28:21;97174.16;;;16.07;100.00
20115;BME280;10218;42.874;25.320;2023-05-25T04:30:49;97177.69;;;16.07;100.00
20115;BME280;10218;42.874;25.320;2023-05-25T04:33:16;97174.16;;;15.94;100.00
20115;BME280;10218;42.874;25.320;2023-05-25T04:35:44;97175.41;;;15.98;100.00
20115;BME280;10218;42.874;25.320;2023-05-25T04:38:13;97177.91;;;16.45;100.00
20115;BME280;10218;42.874;25.320;2023-05-25T04:40:43;97172.94;;;16.29;100.00
20115;BME280;10218;42.874;25.320;2023-05-25T04:43:12;97177.72;;;16.40;100.00
20115;BME280;10218;42.874;25.320;2023-05-25T04:45:45;97178.34;;;16.29;100.00
20115;BME280;10218;42.874;25.320;2023-05-25T04:48:13;97175.00;;;16.40;100.00
20115;BME280;10218;42.874;25.320;2023-05-25T04:50:40;97178.28;;;16.82;100.00
20115;BME280;10218;42.874;25.320;2023-05-25T04:53:08;97174.75;;;17.45;100.00
20115;BME280;10218;42.874;25.320;2023-05-25T04:55:35;97169.25;;;17.72;100.00
20115;BME280;10218;42.874;25.320;2023-05-25T04:58:02;97165.66;;;17.78;100.00
20115;BME280;10218;42.874;25.320;2023-05-25T05:00:31;97160.34;;;18.52;100.00
20115;BME280;10218;42.874;25.320;2023-05-25T05:03:00;97168.44;;;18.27;100.00
20115;BME280;10218;42.874;25.320;2023-05-25T05:05:28;97167.19;;;18.55;100.00
20115;BME280;10218;42.874;25.320;2023-05-25T05:07:57;97161.06;;;18.66;100.00
20115;BME280;10218;42.874;25.320;2023-05-25T05:10:28;97164.50;;;18.55;100.00
20115;BME280;10218;42.874;25.320;2023-05-25T05:12:56;97155.38;;;19.10;100.00
20115;BME280;10218;42.874;25.320;2023-05-25T05:15:23;97162.81;;;19.15;100.00
20115;BME280;10218;42.874;25.320;2023-05-25T05:17:50;97155.44;;;19.58;100.00
20115;BME280;10218;42.874;25.320;2023-05-25T05:20:18;97164.84;;;18.83;100.00
20115;BME280;10218;42.874;25.320;2023-05-25T05:22:46;97158.69;;;18.94;100.00
20115;BME280;10218;42.874;25.320;2023-05-25T05:25:13;97161.41;;;19.12;100.00
20115;BME280;10218;42.874;25.320;2023-05-25T05:27:40;97169.69;;;19.54;100.00
20115;BME280;10218;42.874;25.320;2023-05-25T05:30:08;97162.28;;;19.43;100.00
20115;BME280;10218;42.874;25.320;2023-05-25T05:32:36;97164.34;;;19.77;100.00
20115;BME280;10218;42.874;25.320;2023-05-25T05:35:03;97166.47;;;19.75;100.00
20115;BME280;10218;42.874;25.320;2023-05-25T05:37:32;97168.84;;;19.83;100.00
20115;BME280;10218;42.874;25.320;2023-05-25T05:40:00;97171.38;;;20.38;100.00
20115;BME280;10218;42.874;25.320;2023-05-25T05:42:27;97176.47;;;20.46;100.00
20115;BME280;10218;42.874;25.320;2023-05-25T05:44:55;97182.41;;;20.66;100.00
20115;BME280;10218;42.874;25.320;2023-05-25T05:47:22;97181.81;;;20.87;100.00
20115;BME280;10218;42.874;25.320;2023-05-25T05:49:49;97182.84;;;21.33;100.00
20115;BME280;10218;42.874;25.320;2023-05-25T05:52:16;97185.22;;;20.95;100.00
20115;BME280;10218;42.874;25.320;2023-05-25T05:54:44;97189.13;;;21.22;100.00
20115;BME280;10218;42.874;25.320;2023-05-25T05:57:11;97189.00;;;22.08;100.00
20115;BME280;10218;42.874;25.320;2023-05-25T05:59:38;97186.69;;;22.17;100.00
20115;BME280;10218;42.874;25.320;2023-05-25T06:02:06;97187.28;;;22.19;100.00
20115;BME280;10218;42.874;25.320;2023-05-25T06:04:33;97191.62;;;22.20;100.00
20115;BME280;10218;42.874;25.320;2023-05-25T06:07:01;97195.81;;;22.39;100.00
20115;BME280;10218;42.874;25.320;2023-05-25T06:09:28;97192.78;;;23.24;100.00
20115;BME280;10218;42.874;25.320;2023-05-25T06:11:56;97202.84;;;23.40;100.00
20115;BME280;10218;42.874;25.320;2023-05-25T06:14:23;97209.34;;;22.06;100.00
20115;BME280;10218;42.874;25.320;2023-05-25T06:16:51;97194.72;;;21.44;100.00
20115;BME280;10218;42.874;25.320;2023-05-25T06:19:19;97195.63;;;22.29;100.00
20115;BME280;10218;42.874;25.320;2023-05-25T06:21:46;97191.41;;;23.43;100.00
20115;BME280;10218;42.874;25.320;2023-05-25T06:24:14;97204.69;;;23.18;100.00
20115;BME280;10218;42.874;25.320;2023-05-25T06:26:42;97205.41;;;22.75;100.00
20115;BME280;10218;42.874;25.320;2023-05-25T06:29:09;97214.19;;;22.66;100.00
20115;BME280;10218;42.874;25.320;2023-05-25T06:31:36;97212.53;;;22.31;100.00
20115;BME280;10218;42.874;25.320;2023-05-25T06:34:04;97216.59;;;23.72;100.00
20115;BME280;10218;42.874;25.320;2023-05-25T06:36:31;97214.69;;;22.01;100.00
20115;BME280;10218;42.874;25.320;2023-05-25T06:38:58;97229.34;;;22.90;100.00
20115;BME280;10218;42.874;25.320;2023-05-25T06:41:26;97227.69;;;22.89;100.00
20115;BME280;10218;42.874;25.320;2023-05-25T06:43:54;97225.16;;;22.37;100.00
20115;BME280;10218;42.874;25.320;2023-05-25T06:46:21;97236.94;;;23.81;100.00
20115;BME280;10218;42.874;25.320;2023-05-25T06:48:48;97237.28;;;22.75;100.00
20115;BME280;10218;42.874;25.320;2023-05-25T06:51:15;97233.87;;;23.78;100.00
20115;BME280;10218;42.874;25.320;2023-05-25T06:53:42;97246.19;;;23.42;100.00
20115;BME280;10218;42.874;25.320;2023-05-25T06:56:10;97232.66;;;23.69;100.00
20115;BME280;10218;42.874;25.320;2023-05-25T06:58:37;97240.97;;;24.22;100.00
20115;BME280;10218;42.874;25.320;2023-05-25T07:01:04;97246.50;;;23.07;100.00
20115;BME280;10218;42.874;25.320;2023-05-25T07:03:32;97244.44;;;23.53;100.00
20115;BME280;10218;42.874;25.320;2023-05-25T07:05:59;97244.03;;;22.89;100.00
20115;BME280;10218;42.874;25.320;2023-05-25T07:08:26;97234.87;;;23.94;100.00
20115;BME280;10218;42.874;25.320;2023-05-25T07:10:53;97245.88;;;23.77;97.96
20115;BME280;10218;42.874;25.320;2023-05-25T07:13:20;97248.91;;;22.42;100.00
20115;BME280;10218;42.874;25.320;2023-05-25T07:15:47;97232.28;;;23.60;100.00
20115;BME280;10218;42.874;25.320;2023-05-25T07:18:15;97237.50;;;23.07;100.00
20115;BME280;10218;42.874;25.320;2023-05-25T07:20:42;97247.94;;;23.48;100.00
20115;BME280;10218;42.874;25.320;2023-05-25T07:23:12;97241.56;;;23.04;100.00
20115;BME280;10218;42.874;25.320;2023-05-25T07:25:40;97247.25;;;23.02;100.00
20115;BME280;10218;42.874;25.320;2023-05-25T07:28:07;97254.03;;;23.99;100.00
20115;BME280;10218;42.874;25.320;2023-05-25T07:30:35;97243.84;;;23.89;98.18
20115;BME280;10218;42.874;25.320;2023-05-25T07:33:02;97241.50;;;24.46;89.60
20115;BME280;10218;42.874;25.320;2023-05-25T07:35:29;97246.59;;;24.16;94.78
20115;BME280;10218;42.874;25.320;2023-05-25T07:38:01;97240.81;;;24.61;94.04
20115;BME280;10218;42.874;25.320;2023-05-25T07:40:30;97250.50;;;24.47;95.52
20115;BME280;10218;42.874;25.320;2023-05-25T07:42:57;97249.63;;;24.68;90.39
20115;BME280;10218;42.874;25.320;2023-05-25T07:45:24;97253.16;;;24.95;86.21
20115;BME280;10218;42.874;25.320;2023-05-25T07:47:52;97250.41;;;24.63;88.20
20115;BME280;10218;42.874;25.320;2023-05-25T07:50:19;97246.62;;;25.01;87.29
20115;BME280;10218;42.874;25.320;2023-05-25T07:52:46;97247.09;;;24.35;100.00
20115;BME280;10218;42.874;25.320;2023-05-25T07:55:13;97238.31;;;24.59;93.88
20115;BME280;10218;42.874;25.320;2023-05-25T07:57:40;97242.28;;;25.05;88.12
20115;BME280;10218;42.874;25.320;2023-05-25T08:00:08;97244.94;;;24.15;90.67
20115;BME280;10218;42.874;25.320;2023-05-25T08:02:38;97252.06;;;23.51;95.45
20115;BME280;10218;42.874;25.320;2023-05-25T08:05:05;97251.13;;;24.05;93.41
20115;BME280;10218;42.874;25.320;2023-05-25T08:07:33;97237.94;;;24.46;94.04
20115;BME280;10218;42.874;25.320;2023-05-25T08:10:00;97247.69;;;24.95;81.68
20115;BME280;10218;42.874;25.320;2023-05-25T08:12:28;97256.19;;;25.41;82.05
20115;BME280;10218;42.874;25.320;2023-05-25T08:15:08;97248.44;;;26.32;76.88
20115;BME280;10218;42.874;25.320;2023-05-25T08:17:36;97247.69;;;23.93;93.50
20115;BME280;10218;42.874;25.320;2023-05-25T08:20:03;97246.94;;;23.98;90.83
20115;BME280;10218;42.874;25.320;2023-05-25T08:22:32;97229.66;;;24.14;92.44
20115;BME280;10218;42.874;25.320;2023-05-25T08:24:59;97232.38;;;24.62;83.95
20115;BME280;10218;42.874;25.320;2023-05-25T08:27:26;97237.28;;;24.65;85.94
20115;BME280;10218;42.874;25.320;2023-05-25T08:29:53;97231.00;;;24.11;89.50
20115;BME280;10218;42.874;25.320;2023-05-25T08:32:20;97230.12;;;23.62;94.19
20115;BME280;10218;42.874;25.320;2023-05-25T08:34:47;97222.78;;;25.81;82.50
20115;BME280;10218;42.874;25.320;2023-05-25T08:37:14;97235.19;;;25.98;82.30
20115;BME280;10218;42.874;25.320;2023-05-25T08:39:42;97219.31;;;25.01;91.25
20115;BME280;10218;42.874;25.320;2023-05-25T08:42:09;97224.34;;;26.29;78.69
20115;BME280;10218;42.874;25.320;2023-05-25T08:44:38;97227.13;;;27.25;67.73
20115;BME280;10218;42.874;25.320;2023-05-25T08:47:06;97222.22;;;26.61;68.65
20115;BME280;10218;42.874;25.320;2023-05-25T08:49:36;97223.56;;;25.71;74.15
20115;BME280;10218;42.874;25.320;2023-05-25T08:52:04;97231.50;;;27.51;67.29
20115;BME280;10218;42.874;25.320;2023-05-25T08:54:36;97218.78;;;26.09;67.68
20115;BME280;10218;42.874;25.320;2023-05-25T08:57:14;97216.25;;;25.40;76.86
20115;BME280;10218;42.874;25.320;2023-05-25T08:59:50;97210.28;;;26.05;75.29
20115;BME280;10218;42.874;25.320;2023-05-25T09:03:36;97219.47;;;28.06;64.86
20115;BME280;10218;42.874;25.320;2023-05-25T09:05:38;97217.66;;;25.42;72.80
20115;BME280;10218;42.874;25.320;2023-05-25T09:08:07;97211.56;;;24.29;90.57
20115;BME280;10218;42.874;25.320;2023-05-25T09:10:35;97213.47;;;25.30;76.89
20115;BME280;10218;42.874;25.320;2023-05-25T09:13:03;97202.44;;;26.29;74.11
20115;BME280;10218;42.874;25.320;2023-05-25T09:15:38;97204.03;;;27.46;61.23
20115;BME280;10218;42.874;25.320;2023-05-25T09:18:06;97205.00;;;29.70;55.91
20115;BME280;10218;42.874;25.320;2023-05-25T09:20:33;97197.56;;;26.97;62.67
20115;BME280;10218;42.874;25.320;2023-05-25T09:23:00;97184.56;;;26.16;70.12
20115;BME280;10218;42.874;25.320;2023-05-25T09:25:28;97194.25;;;26.74;62.17
20115;BME280;10218;42.874;25.320;2023-05-25T09:27:57;97194.44;;;27.44;60.71
20115;BME280;10218;42.874;25.320;2023-05-25T09:30:24;97188.19;;;26.47;65.77
20115;BME280;10218;42.874;25.320;2023-05-25T09:32:53;97177.25;;;26.98;63.88
20115;BME280;10218;42.874;25.320;2023-05-25T09:35:20;97175.63;;;25.59;69.81
20115;BME280;10218;42.874;25.320;2023-05-25T09:37:52;97180.63;;;25.77;70.99
20115;BME280;10218;42.874;25.320;2023-05-25T09:40:21;97189.97;;;25.91;70.82
20115;BME280;10218;42.874;25.320;2023-05-25T09:42:48;97186.28;;;26.73;66.88
20115;BME280;10218;42.874;25.320;2023-05-25T09:45:16;97176.53;;;28.26;61.10
20115;BME280;10218;42.874;25.320;2023-05-25T09:47:43;97178.03;;;26.27;59.44
20115;BME280;10218;42.874;25.320;2023-05-25T09:50:10;97183.84;;;26.66;62.18
20115;BME280;10218;42.874;25.320;2023-05-25T09:52:37;97178.34;;;26.31;64.72
20115;BME280;10218;42.874;25.320;2023-05-25T09:55:07;97185.81;;;25.73;72.91
20115;BME280;10218;42.874;25.320;2023-05-25T09:57:35;97178.34;;;25.06;84.85
20115;BME280;10218;42.874;25.320;2023-05-25T10:00:02;97182.81;;;24.86;87.29
20115;BME280;10218;42.874;25.320;2023-05-25T10:02:37;97171.34;;;24.52;92.72
20115;BME280;10218;42.874;25.320;2023-05-25T10:05:05;97179.00;;;25.24;86.36
20115;BME280;10218;42.874;25.320;2023-05-25T10:07:33;97168.13;;;25.34;79.10
20115;BME280;10218;42.874;25.320;2023-05-25T10:10:05;97168.63;;;25.88;76.70
20115;BME280;10218;42.874;25.320;2023-05-25T10:12:34;97161.25;;;27.45;64.04
20115;BME280;10218;42.874;25.320;2023-05-25T10:15:02;97159.66;;;27.98;55.91
20115;BME280;10218;42.874;25.320;2023-05-25T10:17:30;97161.00;;;29.13;50.80
20115;BME280;10218;42.874;25.320;2023-05-25T10:19:59;97148.72;;;27.93;51.76
20115;BME280;10218;42.874;25.320;2023-05-25T10:27:41;97138.75;;;28.02;52.01
20115;BME280;10218;42.874;25.320;2023-05-25T10:30:11;97144.63;;;28.30;50.78
20115;BME280;10218;42.874;25.320;2023-05-25T10:32:41;97145.34;;;28.45;49.77
20115;BME280;10218;42.874;25.320;2023-05-25T10:35:10;97148.38;;;28.83;47.78
20115;BME280;10218;42.874;25.320;2023-05-25T10:37:38;97139.53;;;30.24;45.85
20115;BME280;10218;42.874;25.320;2023-05-25T10:40:06;97140.81;;;31.15;42.65
20115;BME280;10218;42.874;25.320;2023-05-25T10:42:37;97133.22;;;29.62;44.26
20115;BME280;10218;42.874;25.320;2023-05-25T10:45:06;97127.37;;;27.01;53.47
20115;BME280;10218;42.874;25.320;2023-05-25T10:47:36;97120.25;;;26.69;59.38
20115;BME280;10218;42.874;25.320;2023-05-25T10:50:05;97112.78;;;27.15;56.54
20115;BME280;10218;42.874;25.320;2023-05-25T10:52:35;97115.03;;;28.89;50.75
20115;BME280;10218;42.874;25.320;2023-05-25T10:55:02;97113.28;;;29.22;48.89
20115;BME280;10218;42.874;25.320;2023-05-25T10:57:32;97113.31;;;27.87;52.25
20115;BME280;10218;42.874;25.320;2023-05-25T11:00:06;97108.66;;;27.18;56.37
20115;BME280;10218;42.874;25.320;2023-05-25T11:02:51;97115.25;;;27.17;55.99
20115;BME280;10218;42.874;25.320;2023-05-25T11:07:56;97113.84;;;30.79;48.46
20115;BME280;10218;42.874;25.320;2023-05-25T11:10:44;97115.78;;;30.09;44.23
20115;BME280;10218;42.874;25.320;2023-05-25T11:18:41;97107.13;;;29.36;48.69
20115;BME280;10218;42.874;25.320;2023-05-25T11:21:20;97104.09;;;28.50;49.11
20115;BME280;10218;42.874;25.320;2023-05-25T11:23:58;97093.53;;;27.31;50.57
20115;BME280;10218;42.874;25.320;2023-05-25T11:26:29;97087.13;;;26.25;53.87
20115;BME280;10218;42.874;25.320;2023-05-25T11:28:57;97086.81;;;26.72;51.50
20115;BME280;10218;42.874;25.320;2023-05-25T11:31:32;97078.47;;;27.23;51.21
20115;BME280;10218;42.874;25.320;2023-05-25T11:34:04;97084.09;;;26.52;50.16
20115;BME280;10218;42.874;25.320;2023-05-25T11:36:32;97084.78;;;27.18;51.89
20115;BME280;10218;42.874;25.320;2023-05-25T11:39:02;97081.91;;;26.59;49.91
20115;BME280;10218;42.874;25.320;2023-05-25T11:41:35;97091.75;;;26.65;49.98
20115;BME280;10218;42.874;25.320;2023-05-25T11:44:04;97093.69;;;26.60;48.58
20115;BME280;10218;42.874;25.320;2023-05-25T11:46:34;97099.41;;;25.25;80.62
20115;BME280;10218;42.874;25.320;2023-05-25T11:49:04;97102.03;;;24.58;100.00
20115;BME280;10218;42.874;25.320;2023-05-25T11:51:31;97094.94;;;23.98;100.00
20115;BME280;10218;42.874;25.320;2023-05-25T11:53:59;97081.09;;;23.29;100.00
20115;BME280;10218;42.874;25.320;2023-05-25T11:56:31;97085.03;;;23.60;100.00
20115;BME280;10218;42.874;25.320;2023-05-25T11:59:00;97090.41;;;23.33;100.00
20115;BME280;10218;42.874;25.320;2023-05-25T12:01:28;97079.31;;;23.18;100.00
20115;BME280;10218;42.874;25.320;2023-05-25T12:04:07;97091.81;;;22.76;100.00
20115;BME280;10218;42.874;25.320;2023-05-25T12:06:35;97082.22;;;23.33;100.00
20115;BME280;10218;42.874;25.320;2023-05-25T12:09:19;97083.56;;;23.53;100.00
20115;BME280;10218;42.874;25.320;2023-05-25T12:11:47;97096.50;;;23.89;100.00
20115;BME280;10218;42.874;25.320;2023-05-25T12:14:15;97105.31;;;23.48;100.00
20115;BME280;10218;42.874;25.320;2023-05-25T12:16:42;97103.13;;;23.98;100.00
20115;BME280;10218;42.874;25.320;2023-05-25T12:19:10;97107.22;;;23.96;100.00
20115;BME280;10218;42.874;25.320;2023-05-25T12:21:39;97122.94;;;23.88;100.00
20115;BME280;10218;42.874;25.320;2023-05-25T12:24:08;97124.81;;;24.10;100.00
20115;BME280;10218;42.874;25.320;2023-05-25T12:26:52;97138.91;;;24.28;100.00
20115;BME280;10218;42.874;25.320;2023-05-25T12:29:30;97158.87;;;23.37;100.00
20115;BME280;10218;42.874;25.320;2023-05-25T12:32:02;97173.63;;;22.64;100.00
20115;BME280;10218;42.874;25.320;2023-05-25T12:34:30;97183.91;;;22.29;100.00
20115;BME280;10218;42.874;25.320;2023-05-25T12:36:57;97179.13;;;21.51;100.00
20115;BME280;10218;42.874;25.320;2023-05-25T12:41:56;97196.91;;;20.95;100.00
20115;BME280;10218;42.874;25.320;2023-05-25T12:44:34;97207.53;;;20.20;100.00
20115;BME280;10218;42.874;25.320;2023-05-25T12:47:19;97231.91;;;18.81;100.00
20115;BME280;10218;42.874;25.320;2023-05-25T12:49:49;97247.56;;;18.48;100.00
20115;BME280;10218;42.874;25.320;2023-05-25T12:52:37;97235.16;;;18.65;100.00
20115;BME280;10218;42.874;25.320;2023-05-25T12:55:28;97225.75;;;18.43;100.00
20115;BME280;10218;42.874;25.320;2023-05-25T12:58:00;97219.09;;;18.70;100.00
20115;BME280;10218;42.874;25.320;2023-05-25T13:00:37;97223.72;;;18.88;100.00
20115;BME280;10218;42.874;25.320;2023-05-25T13:03:05;97204.25;;;18.79;100.00
20115;BME280;10218;42.874;25.320;2023-05-25T13:05:36;97201.25;;;18.87;100.00
20115;BME280;10218;42.874;25.320;2023-05-25T13:08:04;97198.84;;;18.79;100.00
20115;BME280;10218;42.874;25.320;2023-05-25T13:10:32;97177.91;;;17.87;100.00
20115;BME280;10218;42.874;25.320;2023-05-25T13:13:00;97199.84;;;17.52;100.00